createdAt,value
2022-12-31T00:00:22.021Z,99.90
2022-12-31T00:03:10.325Z,99.70
2022-12-31T00:05:37.635Z,100.00
2022-12-31T00:08:04.972Z,99.98
2022-12-31T00:10:34.214Z,100.00
2022-12-31T00:13:01.413Z,99.94
2022-12-31T00:15:28.550Z,99.88
2022-12-31T00:17:55.774Z,99.91
2022-12-31T00:20:22.720Z,99.84
2022-12-31T00:22:50.730Z,99.95
2022-12-31T00:25:17.800Z,99.54
2022-12-31T00:27:44.930Z,99.52
2022-12-31T00:30:12.524Z,99.52
2022-12-31T00:32:39.696Z,99.02
2022-12-31T00:35:07.059Z,99.86
2022-12-31T00:37:34.190Z,99.65
2022-12-31T00:40:01.329Z,99.80
2022-12-31T00:42:28.562Z,99.40
2022-12-31T00:44:55.485Z,99.65
2022-12-31T00:47:24.627Z,99.70
2022-12-31T00:49:51.591Z,100.00
2022-12-31T00:52:18.916Z,100.00
2022-12-31T00:54:45.811Z,100.00
2022-12-31T00:57:13.262Z,100.00
2022-12-31T00:59:40.151Z,100.00
2022-12-31T01:02:07.527Z,100.00
2022-12-31T01:04:34.743Z,100.00
2022-12-31T01:07:01.970Z,100.00
2022-12-31T01:09:28.883Z,99.55
2022-12-31T01:11:56.036Z,99.74
2022-12-31T01:14:22.961Z,99.89
2022-12-31T01:16:52.933Z,99.74
2022-12-31T01:19:25.651Z,99.24
2022-12-31T01:21:53.518Z,99.28
2022-12-31T01:24:21.023Z,99.18
2022-12-31T01:26:50.952Z,98.96
2022-12-31T01:29:18.440Z,98.63
2022-12-31T01:31:45.744Z,98.63
2022-12-31T01:34:12.757Z,98.31
2022-12-31T01:36:40.250Z,98.23
2022-12-31T01:39:08.900Z,98.17
2022-12-31T01:41:41.350Z,97.93
2022-12-31T01:44:11.283Z,97.27
2022-12-31T01:46:51.798Z,97.01
2022-12-31T01:49:24.061Z,97.01
2022-12-31T01:51:57.176Z,96.84
2022-12-31T01:54:27.246Z,97.09
2022-12-31T01:56:55.891Z,96.75
2022-12-31T01:59:25.639Z,96.59
2022-12-31T02:01:53.340Z,96.14
2022-12-31T02:04:24.014Z,96.40
2022-12-31T02:06:59.236Z,96.23
2022-12-31T02:09:26.168Z,95.85
2022-12-31T02:11:53.399Z,95.70
2022-12-31T02:14:28.853Z,95.49
2022-12-31T02:17:25.243Z,95.70
2022-12-31T02:20:13.306Z,94.76
2022-12-31T02:23:13.711Z,95.09
2022-12-31T02:25:59.044Z,94.65
2022-12-31T02:28:44.421Z,93.77
2022-12-31T02:31:32.647Z,93.41
2022-12-31T02:34:08.990Z,93.46
2022-12-31T02:36:41.158Z,93.13
2022-12-31T02:39:10.119Z,92.81
2022-12-31T02:41:52.388Z,92.62
2022-12-31T02:44:33.671Z,92.14
2022-12-31T02:47:09.473Z,92.00
2022-12-31T02:49:58.486Z,91.95
2022-12-31T02:52:46.363Z,91.57
2022-12-31T02:55:32.079Z,91.54
2022-12-31T02:58:06.370Z,90.97
2022-12-31T03:00:57.905Z,90.93
2022-12-31T03:03:27.418Z,90.85
2022-12-31T03:05:55.941Z,90.53
2022-12-31T03:08:25.130Z,90.46
2022-12-31T03:10:52.397Z,90.39
2022-12-31T03:13:19.351Z,90.28
2022-12-31T03:15:48.475Z,90.11
2022-12-31T03:18:18.001Z,90.05
2022-12-31T03:21:09.053Z,89.87
2022-12-31T03:23:50.213Z,89.44
2022-12-31T03:26:17.643Z,89.33
2022-12-31T03:28:48.008Z,89.29
2022-12-31T03:31:16.493Z,89.42
2022-12-31T03:33:43.642Z,89.32
2022-12-31T03:36:14.767Z,89.27
2022-12-31T03:38:41.768Z,89.41
2022-12-31T03:41:11.083Z,89.16
2022-12-31T03:43:38.534Z,89.25
2022-12-31T03:46:06.222Z,89.08
2022-12-31T03:48:33.348Z,89.31
2022-12-31T03:51:00.585Z,89.31
2022-12-31T03:53:27.633Z,89.05
2022-12-31T03:55:55.191Z,88.72
2022-12-31T03:58:22.734Z,88.79
2022-12-31T04:00:50.917Z,88.57
2022-12-31T04:03:18.300Z,88.49
2022-12-31T04:05:45.478Z,88.52
2022-12-31T04:08:12.579Z,88.64
2022-12-31T04:10:39.810Z,88.52
2022-12-31T04:13:06.777Z,88.31
2022-12-31T04:15:34.049Z,88.40
2022-12-31T04:18:00.970Z,88.33
2022-12-31T04:20:28.171Z,88.58
2022-12-31T04:22:55.237Z,88.33
2022-12-31T04:25:22.391Z,88.43
2022-12-31T04:27:49.647Z,88.19
2022-12-31T04:30:17.178Z,88.39
2022-12-31T04:32:44.399Z,87.94
2022-12-31T04:35:12.498Z,88.17
2022-12-31T04:37:39.755Z,88.03
2022-12-31T04:40:09.172Z,88.03
2022-12-31T04:42:36.578Z,88.07
2022-12-31T04:45:04.776Z,88.13
2022-12-31T04:47:31.761Z,87.92
2022-12-31T04:49:58.964Z,88.07
2022-12-31T04:52:26.997Z,87.79
2022-12-31T04:54:54.197Z,87.84
2022-12-31T04:57:21.070Z,87.62
2022-12-31T04:59:48.363Z,87.71
2022-12-31T05:02:15.528Z,87.62
2022-12-31T05:04:43.944Z,87.55
2022-12-31T05:07:10.873Z,87.61
2022-12-31T05:09:38.096Z,87.60
2022-12-31T05:12:05.392Z,87.71
2022-12-31T05:14:32.613Z,87.75
2022-12-31T05:17:04.919Z,87.58
2022-12-31T05:19:32.142Z,87.69
2022-12-31T05:22:17.488Z,87.75
2022-12-31T05:24:44.829Z,87.68
2022-12-31T05:27:11.723Z,87.77
2022-12-31T05:29:38.911Z,87.84
2022-12-31T05:32:05.851Z,87.87
2022-12-31T05:34:33.381Z,87.97
2022-12-31T05:37:00.399Z,88.06
2022-12-31T05:39:27.629Z,88.14
2022-12-31T05:41:54.607Z,88.20
2022-12-31T05:44:21.740Z,88.22
2022-12-31T05:46:48.785Z,88.44
2022-12-31T05:49:16.642Z,88.49
2022-12-31T05:51:43.577Z,88.42
2022-12-31T05:54:10.807Z,88.58
2022-12-31T05:56:37.735Z,88.60
2022-12-31T05:59:05.016Z,88.70
2022-12-31T06:01:31.950Z,89.02
2022-12-31T06:03:59.347Z,89.19
2022-12-31T06:06:26.332Z,89.71
2022-12-31T06:08:53.679Z,89.96
2022-12-31T06:11:20.635Z,89.89
2022-12-31T06:13:47.825Z,90.13
2022-12-31T06:16:14.960Z,90.31
2022-12-31T06:18:42.201Z,90.56
2022-12-31T06:21:09.586Z,90.64
2022-12-31T06:23:36.996Z,90.59
2022-12-31T06:26:08.048Z,90.74
2022-12-31T06:28:35.851Z,90.80
2022-12-31T06:31:05.488Z,90.99
2022-12-31T06:33:33.611Z,90.92
2022-12-31T06:36:02.770Z,90.95
2022-12-31T06:38:31.491Z,91.04
2022-12-31T06:40:58.486Z,91.19
2022-12-31T06:43:25.668Z,91.24
2022-12-31T06:45:52.564Z,91.39
2022-12-31T06:48:19.683Z,91.38
2022-12-31T06:51:07.793Z,91.54
2022-12-31T06:53:37.846Z,91.52
2022-12-31T06:56:07.420Z,91.63
2022-12-31T06:58:35.230Z,91.56
2022-12-31T07:01:32.465Z,91.71
2022-12-31T07:04:37.657Z,91.65
2022-12-31T07:07:08.261Z,91.62
2022-12-31T07:09:45.698Z,91.49
2022-12-31T07:12:40.469Z,91.58
2022-12-31T07:15:14.539Z,91.32
2022-12-31T07:17:46.927Z,91.28
2022-12-31T07:20:16.924Z,91.18
2022-12-31T07:22:45.949Z,91.19
2022-12-31T07:25:15.418Z,91.37
2022-12-31T07:28:00.641Z,91.20
2022-12-31T07:30:27.857Z,90.96
2022-12-31T07:33:16.267Z,90.73
2022-12-31T07:36:01.568Z,90.73
2022-12-31T07:38:47.097Z,90.57
2022-12-31T07:41:26.540Z,90.36
2022-12-31T07:44:04.275Z,89.65
2022-12-31T07:46:56.671Z,89.76
2022-12-31T07:49:25.491Z,89.87
2022-12-31T07:51:53.485Z,90.02
2022-12-31T07:54:21.762Z,89.79
2022-12-31T07:56:50.997Z,89.79
2022-12-31T07:59:36.072Z,89.93
2022-12-31T08:02:14.529Z,89.82
2022-12-31T08:04:55.760Z,89.49
2022-12-31T08:07:53.860Z,89.50
2022-12-31T08:10:29.688Z,89.13
2022-12-31T08:13:02.528Z,89.06
2022-12-31T08:15:30.735Z,89.31
2022-12-31T08:17:58.348Z,89.17
2022-12-31T08:20:27.041Z,88.75
2022-12-31T08:23:29.556Z,88.62
2022-12-31T08:26:23.577Z,88.93
2022-12-31T08:28:56.485Z,88.61
2022-12-31T08:31:50.790Z,88.23
2022-12-31T08:34:42.754Z,88.09
2022-12-31T08:37:27.248Z,88.04
2022-12-31T08:40:06.536Z,87.87
2022-12-31T08:42:52.291Z,88.06
2022-12-31T08:45:37.808Z,87.43
2022-12-31T08:48:51.401Z,87.07
2022-12-31T08:51:23.584Z,86.74
2022-12-31T08:53:51.282Z,87.20
2022-12-31T08:56:29.161Z,86.47
2022-12-31T08:59:05.194Z,85.50
2022-12-31T09:02:02.080Z,85.58
2022-12-31T09:04:47.755Z,85.50
2022-12-31T09:07:19.106Z,84.89
2022-12-31T09:10:07.692Z,85.12
2022-12-31T09:13:01.497Z,84.53
2022-12-31T09:15:37.761Z,83.60
2022-12-31T09:18:05.550Z,83.68
2022-12-31T09:20:43.853Z,84.08
2022-12-31T09:23:13.345Z,84.30
2022-12-31T09:25:58.117Z,84.07
2022-12-31T09:28:31.448Z,83.73
2022-12-31T09:31:06.200Z,83.79
2022-12-31T09:34:05.733Z,83.74
2022-12-31T09:36:41.033Z,84.13
2022-12-31T09:39:22.621Z,84.23
2022-12-31T09:42:14.179Z,84.28
2022-12-31T09:44:56.956Z,84.56
2022-12-31T09:47:36.032Z,84.80
2022-12-31T09:50:42.661Z,84.65
2022-12-31T09:53:40.603Z,84.81
2022-12-31T09:56:29.472Z,84.95
2022-12-31T09:59:10.220Z,84.72
2022-12-31T10:01:45.058Z,84.93
2022-12-31T10:04:29.202Z,84.89
2022-12-31T10:07:15.214Z,84.95
2022-12-31T10:09:53.967Z,85.03
2022-12-31T10:12:36.120Z,84.79
2022-12-31T10:15:05.770Z,84.90
2022-12-31T10:18:06.736Z,84.71
2022-12-31T10:20:56.058Z,84.39
2022-12-31T10:23:26.222Z,84.59
2022-12-31T10:26:17.579Z,84.48
2022-12-31T10:29:06.349Z,84.06
2022-12-31T10:31:54.625Z,83.91
2022-12-31T10:34:55.836Z,82.90
2022-12-31T10:37:43.341Z,82.65
2022-12-31T10:40:32.424Z,82.37
2022-12-31T10:43:30.370Z,82.01
2022-12-31T10:46:03.485Z,81.94
2022-12-31T10:48:48.918Z,81.63
2022-12-31T10:51:43.759Z,80.89
2022-12-31T10:54:35.418Z,81.03
2022-12-31T10:57:23.781Z,81.01
2022-12-31T11:00:09.583Z,81.19
2022-12-31T11:03:28.997Z,80.95
2022-12-31T11:06:05.590Z,80.67
2022-12-31T11:08:35.492Z,80.75
2022-12-31T11:11:39.807Z,80.74
2022-12-31T11:15:04.015Z,80.89
2022-12-31T11:17:39.900Z,80.67
2022-12-31T11:20:28.296Z,80.55
2022-12-31T11:23:21.133Z,80.64
2022-12-31T11:26:20.133Z,80.09
2022-12-31T11:28:55.924Z,79.79
2022-12-31T11:31:23.274Z,79.80
2022-12-31T11:34:17.065Z,80.15
2022-12-31T11:37:27.698Z,80.31
2022-12-31T11:40:21.844Z,80.14
2022-12-31T11:43:11.375Z,80.58
2022-12-31T11:45:50.270Z,80.76
2022-12-31T11:48:36.780Z,80.79
2022-12-31T11:51:34.596Z,80.64
2022-12-31T11:54:29.053Z,80.70
2022-12-31T11:57:12.882Z,80.68
2022-12-31T11:59:40.249Z,80.56
2022-12-31T12:02:27.711Z,80.40
2022-12-31T12:05:08.292Z,80.06
2022-12-31T12:07:37.397Z,80.25
2022-12-31T12:10:23.407Z,80.20
2022-12-31T12:12:52.800Z,80.48
2022-12-31T12:15:31.389Z,79.59
2022-12-31T12:18:04.921Z,79.76
2022-12-31T12:20:35.575Z,80.00
2022-12-31T12:23:14.622Z,80.16
2022-12-31T12:25:44.953Z,80.30
2022-12-31T12:28:44.511Z,80.36
2022-12-31T12:31:22.252Z,80.57
2022-12-31T12:33:51.432Z,80.74
2022-12-31T12:36:20.706Z,81.20
2022-12-31T12:38:47.867Z,81.61
2022-12-31T12:41:26.360Z,82.58
2022-12-31T12:44:04.033Z,83.79
2022-12-31T12:46:47.801Z,84.65
2022-12-31T12:49:46.749Z,85.45
2022-12-31T12:52:26.185Z,85.85
2022-12-31T12:55:18.454Z,86.05
2022-12-31T12:58:04.356Z,86.38
2022-12-31T13:00:33.865Z,86.71
2022-12-31T13:03:19.500Z,87.04
2022-12-31T13:06:01.717Z,87.21
2022-12-31T13:08:38.142Z,87.36
2022-12-31T13:11:26.504Z,87.55
2022-12-31T13:14:14.883Z,88.04
2022-12-31T13:17:00.189Z,88.13
2022-12-31T13:20:07.482Z,88.44
2022-12-31T13:22:48.238Z,88.61
2022-12-31T13:25:55.231Z,88.69
2022-12-31T13:28:24.185Z,88.91
2022-12-31T13:31:06.617Z,89.26
2022-12-31T13:33:41.005Z,89.39
2022-12-31T13:36:13.618Z,89.24
2022-12-31T13:38:51.077Z,89.05
2022-12-31T13:41:24.976Z,88.94
2022-12-31T13:44:36.510Z,87.81
2022-12-31T13:47:12.875Z,87.65
2022-12-31T13:49:39.784Z,86.29
2022-12-31T13:52:45.282Z,86.42
2022-12-31T13:55:25.550Z,86.29
2022-12-31T13:57:58.361Z,85.91
2022-12-31T14:00:32.427Z,85.58
2022-12-31T14:03:09.746Z,85.91
2022-12-31T14:05:52.539Z,86.29
2022-12-31T14:08:19.823Z,86.61
2022-12-31T14:11:04.882Z,86.96
2022-12-31T14:13:37.853Z,87.29
2022-12-31T14:16:17.579Z,86.98
2022-12-31T14:19:02.880Z,86.96
2022-12-31T14:21:57.651Z,86.73
2022-12-31T14:24:48.037Z,86.75
2022-12-31T14:27:17.183Z,86.56
2022-12-31T14:29:53.571Z,85.93
2022-12-31T14:32:42.971Z,85.59
2022-12-31T14:35:22.306Z,85.43
2022-12-31T14:38:06.307Z,85.43
2022-12-31T14:41:01.642Z,85.60
2022-12-31T14:43:55.229Z,85.28
2022-12-31T14:46:35.889Z,85.22
2022-12-31T14:49:14.022Z,85.34
2022-12-31T14:51:41.847Z,85.24
2022-12-31T14:54:34.337Z,85.08
2022-12-31T14:57:54.351Z,85.09
2022-12-31T15:00:35.819Z,84.85
2022-12-31T15:03:24.420Z,84.44
2022-12-31T15:06:06.440Z,84.84
2022-12-31T15:08:40.976Z,84.54
2022-12-31T15:11:26.652Z,84.43
2022-12-31T15:14:16.862Z,84.08
2022-12-31T15:17:08.170Z,82.54
2022-12-31T15:19:50.773Z,82.40
2022-12-31T15:22:36.432Z,82.78
2022-12-31T15:25:17.952Z,82.85
2022-12-31T15:27:47.201Z,83.36
2022-12-31T15:30:32.322Z,83.42
2022-12-31T15:33:01.884Z,83.40
2022-12-31T15:35:51.551Z,83.35
2022-12-31T15:38:31.541Z,83.46
2022-12-31T15:40:59.430Z,83.31
2022-12-31T15:43:49.221Z,83.10
2022-12-31T15:46:20.731Z,82.74
2022-12-31T15:49:01.947Z,82.44
2022-12-31T15:51:52.813Z,81.82
2022-12-31T15:54:42.677Z,81.57
2022-12-31T15:57:36.277Z,80.90
2022-12-31T16:00:14.766Z,80.84
2022-12-31T16:02:43.423Z,81.17
2022-12-31T16:05:25.341Z,81.74
2022-12-31T16:07:58.347Z,81.73
2022-12-31T16:10:30.212Z,82.02
2022-12-31T16:12:58.969Z,81.47
2022-12-31T16:15:30.501Z,81.25
2022-12-31T16:18:06.676Z,81.50
2022-12-31T16:20:40.498Z,81.70
2022-12-31T16:23:27.838Z,81.55
2022-12-31T16:26:00.192Z,80.93
2022-12-31T16:28:32.566Z,80.83
2022-12-31T16:31:16.494Z,80.62
2022-12-31T16:33:45.116Z,80.64
2022-12-31T16:36:23.883Z,80.87
2022-12-31T16:38:51.442Z,80.90
2022-12-31T16:41:20.901Z,80.28
2022-12-31T16:43:50.266Z,80.36
2022-12-31T16:46:21.627Z,80.55
2022-12-31T16:48:52.501Z,80.36
2022-12-31T16:51:22.755Z,80.13
2022-12-31T16:53:51.216Z,80.25
2022-12-31T16:56:34.518Z,80.43
2022-12-31T16:59:06.010Z,80.73
2022-12-31T17:01:35.736Z,80.48
2022-12-31T17:04:09.547Z,80.94
2022-12-31T17:06:36.717Z,81.28
2022-12-31T17:09:18.640Z,81.42
2022-12-31T17:12:07.773Z,81.00
2022-12-31T17:14:48.206Z,81.37
2022-12-31T17:17:25.782Z,80.91
2022-12-31T17:20:02.397Z,80.78
2022-12-31T17:22:41.548Z,80.52
2022-12-31T17:25:20.828Z,80.63
2022-12-31T17:27:54.335Z,80.76
2022-12-31T17:30:31.439Z,80.73
2022-12-31T17:33:00.869Z,80.93
2022-12-31T17:35:31.020Z,80.27
2022-12-31T17:38:23.011Z,80.49
2022-12-31T17:41:14.404Z,80.78
2022-12-31T17:43:41.767Z,80.78
2022-12-31T17:46:12.819Z,81.05
2022-12-31T17:48:40.938Z,81.36
2022-12-31T17:51:08.529Z,81.97
2022-12-31T17:53:35.761Z,82.13
2022-12-31T17:56:06.425Z,81.98
2022-12-31T17:58:37.716Z,82.47
2022-12-31T18:01:05.982Z,82.40
2022-12-31T18:03:33.206Z,82.30
2022-12-31T18:06:00.529Z,82.21
2022-12-31T18:08:27.426Z,82.77
2022-12-31T18:10:55.038Z,82.50
2022-12-31T18:13:26.955Z,82.52
2022-12-31T18:15:54.763Z,82.16
2022-12-31T18:18:25.461Z,81.84
2022-12-31T18:20:55.699Z,82.15
2022-12-31T18:23:35.034Z,82.13
2022-12-31T18:26:02.221Z,82.63
2022-12-31T18:28:29.333Z,82.36
2022-12-31T18:30:56.754Z,81.89
2022-12-31T18:33:25.191Z,82.31
2022-12-31T18:36:10.159Z,82.35
2022-12-31T18:38:37.683Z,82.25
2022-12-31T18:41:05.958Z,81.95
2022-12-31T18:43:32.912Z,81.89
2022-12-31T18:46:00.263Z,81.84
2022-12-31T18:48:27.191Z,81.99
2022-12-31T18:50:54.386Z,81.97
2022-12-31T18:53:23.585Z,81.74
2022-12-31T18:55:56.216Z,80.70
2022-12-31T18:58:24.123Z,80.50
2022-12-31T19:00:52.125Z,80.97
2022-12-31T19:03:22.236Z,81.39
2022-12-31T19:06:08.979Z,81.20
2022-12-31T19:08:36.212Z,81.08
2022-12-31T19:11:04.021Z,81.25
2022-12-31T19:13:30.888Z,81.37
2022-12-31T19:15:58.763Z,81.13
2022-12-31T19:18:25.980Z,80.95
2022-12-31T19:20:53.554Z,80.63
2022-12-31T19:23:22.424Z,80.10
2022-12-31T19:25:50.290Z,80.59
2022-12-31T19:28:23.569Z,80.45
2022-12-31T19:30:51.976Z,80.50
2022-12-31T19:33:19.711Z,80.73
2022-12-31T19:35:47.476Z,80.34
2022-12-31T19:38:23.777Z,80.76
2022-12-31T19:40:52.623Z,80.53
2022-12-31T19:43:21.709Z,80.50
2022-12-31T19:45:50.160Z,80.71
2022-12-31T19:48:20.329Z,81.39
2022-12-31T19:50:53.283Z,81.76
2022-12-31T19:53:24.466Z,81.72
2022-12-31T19:55:52.057Z,81.69
2022-12-31T19:58:27.495Z,81.55
2022-12-31T20:01:02.013Z,81.52
2022-12-31T20:03:30.097Z,81.95
2022-12-31T20:06:03.079Z,82.34
2022-12-31T20:08:30.094Z,81.89
2022-12-31T20:10:58.947Z,82.17
2022-12-31T20:13:27.073Z,81.91
2022-12-31T20:15:54.438Z,82.06
2022-12-31T20:18:23.005Z,82.36
2022-12-31T20:20:55.740Z,82.59
2022-12-31T20:23:23.073Z,82.34
2022-12-31T20:26:08.471Z,82.50
2022-12-31T20:28:36.541Z,82.85
2022-12-31T20:31:12.786Z,83.10
2022-12-31T20:33:40.087Z,83.43
2022-12-31T20:36:09.408Z,83.99
2022-12-31T20:38:36.858Z,84.21
2022-12-31T20:41:08.708Z,84.18
2022-12-31T20:43:36.964Z,84.43
2022-12-31T20:46:12.606Z,84.51
2022-12-31T20:48:42.887Z,84.58
2022-12-31T20:51:09.804Z,84.60
2022-12-31T20:53:37.022Z,84.66
2022-12-31T20:56:09.838Z,84.68
2022-12-31T20:58:37.214Z,84.79
2022-12-31T21:01:08.272Z,84.37
2022-12-31T21:04:04.498Z,84.87
2022-12-31T21:06:23.723Z,85.04
2022-12-31T21:08:51.337Z,85.07
2022-12-31T21:11:36.879Z,85.37
2022-12-31T21:14:04.129Z,85.17
2022-12-31T21:16:31.873Z,85.68
2022-12-31T21:18:59.195Z,85.30
2022-12-31T21:21:26.063Z,85.21
2022-12-31T21:23:53.456Z,84.01
2022-12-31T21:26:20.420Z,84.06
2022-12-31T21:28:47.605Z,84.23
2022-12-31T21:31:15.245Z,83.33
2022-12-31T21:33:46.586Z,83.43
2022-12-31T21:36:14.472Z,83.72
2022-12-31T21:38:42.216Z,83.90
2022-12-31T21:41:33.302Z,83.53
2022-12-31T21:44:02.080Z,83.52
2022-12-31T21:46:29.306Z,83.13
2022-12-31T21:49:00.458Z,82.43
2022-12-31T21:51:28.046Z,82.54
2022-12-31T21:53:55.409Z,82.49
2022-12-31T21:56:23.099Z,82.09
2022-12-31T21:59:15.725Z,82.30
2022-12-31T22:02:01.593Z,82.21
2022-12-31T22:05:00.823Z,81.72
2022-12-31T22:07:16.181Z,81.63
2022-12-31T22:09:43.482Z,81.70
2022-12-31T22:12:10.425Z,81.15
2022-12-31T22:14:37.659Z,81.60
2022-12-31T22:17:04.544Z,81.45
2022-12-31T22:19:33.656Z,81.20
2022-12-31T22:22:10.582Z,81.30
2022-12-31T22:24:37.774Z,81.57
2022-12-31T22:27:29.271Z,81.22
2022-12-31T22:29:52.252Z,81.51
2022-12-31T22:32:19.136Z,81.83
2022-12-31T22:34:46.387Z,82.11
2022-12-31T22:37:35.645Z,82.45
2022-12-31T22:40:00.402Z,82.67
2022-12-31T22:42:27.314Z,82.47
2022-12-31T22:44:54.513Z,82.65
2022-12-31T22:47:21.434Z,82.77
2022-12-31T22:49:48.619Z,83.05
2022-12-31T22:52:15.507Z,83.45
2022-12-31T22:54:42.661Z,83.26
2022-12-31T22:57:13.375Z,82.80
2022-12-31T22:59:45.120Z,81.93
2022-12-31T23:02:12.032Z,82.14
2022-12-31T23:04:39.956Z,82.18
2022-12-31T23:07:07.821Z,82.91
2022-12-31T23:09:53.869Z,83.26
2022-12-31T23:12:20.891Z,83.25
2022-12-31T23:15:06.975Z,83.63
2022-12-31T23:17:52.839Z,83.89
2022-12-31T23:20:41.514Z,84.11
2022-12-31T23:23:13.891Z,84.19
2022-12-31T23:25:44.179Z,84.02
2022-12-31T23:28:17.900Z,84.01
2022-12-31T23:30:45.821Z,83.60
2022-12-31T23:33:16.390Z,83.61
2022-12-31T23:35:44.383Z,83.75
2022-12-31T23:38:11.707Z,83.91
2022-12-31T23:40:39.286Z,84.02
2022-12-31T23:43:08.022Z,84.58
2022-12-31T23:45:36.324Z,84.80
2022-12-31T23:48:03.725Z,85.19
2022-12-31T23:50:30.879Z,85.53
2022-12-31T23:52:57.747Z,85.41
2022-12-31T23:55:24.906Z,85.18
2022-12-31T23:57:51.840Z,84.98
